sensor_id;sensor_type;location;lat;lon;timestamp;pressure;altitude;pressure_sealevel;temperature;humidity
49529;BME280;35423;37.320;-121.762;2023-04-26T00:01:56;99586.02;;;42.98;5.64
49529;BME280;35423;37.320;-121.762;2023-04-26T00:04:23;99584.73;;;42.63;5.67
49529;BME280;35423;37.320;-121.762;2023-04-26T00:06:49;99584.11;;;42.45;5.67
49529;BME280;35423;37.320;-121.762;2023-04-26T00:09:16;99586.66;;;42.60;5.73
49529;BME280;35423;37.320;-121.762;2023-04-26T00:11:41;99583.45;;;42.47;5.86
49529;BME280;35423;37.320;-121.762;2023-04-26T00:14:07;99585.91;;;42.36;5.95
49529;BME280;35423;37.320;-121.762;2023-04-26T00:16:40;99586.38;;;42.47;5.90
49529;BME280;35423;37.320;-121.762;2023-04-26T00:19:09;99592.89;;;42.12;5.86
49529;BME280;35423;37.320;-121.762;2023-04-26T00:21:35;99591.60;;;41.96;5.86
49529;BME280;35423;37.320;-121.762;2023-04-26T00:24:09;99595.25;;;42.03;5.87
49529;BME280;35423;37.320;-121.762;2023-04-26T00:26:54;99597.78;;;41.93;5.83
49529;BME280;35423;37.320;-121.762;2023-04-26T00:29:26;99602.72;;;41.78;5.99
49529;BME280;35423;37.320;-121.762;2023-04-26T00:31:59;99600.40;;;41.94;6.08
49529;BME280;35423;37.320;-121.762;2023-04-26T00:34:23;99604.56;;;41.35;6.17
49529;BME280;35423;37.320;-121.762;2023-04-26T00:36:48;99605.03;;;41.74;6.25
49529;BME280;35423;37.320;-121.762;2023-04-26T00:39:15;99608.27;;;41.42;6.37
49529;BME280;35423;37.320;-121.762;2023-04-26T00:41:40;99609.69;;;41.31;6.45
49529;BME280;35423;37.320;-121.762;2023-04-26T00:44:16;99609.03;;;41.49;6.43
49529;BME280;35423;37.320;-121.762;2023-04-26T00:46:42;99607.80;;;41.28;6.44
49529;BME280;35423;37.320;-121.762;2023-04-26T00:49:08;99606.95;;;41.38;6.41
49529;BME280;35423;37.320;-121.762;2023-04-26T00:51:51;99607.05;;;40.96;6.39
49529;BME280;35423;37.320;-121.762;2023-04-26T00:54:15;99611.47;;;40.85;6.60
49529;BME280;35423;37.320;-121.762;2023-04-26T00:56:44;99611.29;;;40.75;6.74
49529;BME280;35423;37.320;-121.762;2023-04-26T00:59:12;99613.31;;;40.67;6.82
49529;BME280;35423;37.320;-121.762;2023-04-26T01:01:41;99613.39;;;40.81;6.88
49529;BME280;35423;37.320;-121.762;2023-04-26T01:04:09;99617.27;;;40.50;6.87
49529;BME280;35423;37.320;-121.762;2023-04-26T01:06:47;99617.20;;;40.67;6.87
49529;BME280;35423;37.320;-121.762;2023-04-26T01:09:12;99616.29;;;40.56;6.91
49529;BME280;35423;37.320;-121.762;2023-04-26T01:11:48;99619.70;;;40.47;6.89
49529;BME280;35423;37.320;-121.762;2023-04-26T01:14:15;99616.56;;;40.13;6.98
49529;BME280;35423;37.320;-121.762;2023-04-26T01:16:45;99618.36;;;40.47;7.01
49529;BME280;35423;37.320;-121.762;2023-04-26T01:19:17;99616.15;;;40.35;7.11
49529;BME280;35423;37.320;-121.762;2023-04-26T01:21:43;99618.65;;;40.26;7.23
49529;BME280;35423;37.320;-121.762;2023-04-26T01:24:09;99621.52;;;39.94;7.30
49529;BME280;35423;37.320;-121.762;2023-04-26T01:26:33;99624.85;;;40.12;7.43
49529;BME280;35423;37.320;-121.762;2023-04-26T01:29:00;99623.53;;;39.60;7.55
49529;BME280;35423;37.320;-121.762;2023-04-26T01:31:27;99625.48;;;39.93;7.54
49529;BME280;35423;37.320;-121.762;2023-04-26T01:33:53;99626.31;;;39.76;7.55
49529;BME280;35423;37.320;-121.762;2023-04-26T01:36:26;99626.23;;;39.60;7.58
49529;BME280;35423;37.320;-121.762;2023-04-26T01:38:52;99627.24;;;39.48;7.61
49529;BME280;35423;37.320;-121.762;2023-04-26T01:41:20;99625.34;;;39.34;7.66
49529;BME280;35423;37.320;-121.762;2023-04-26T01:43:46;99624.17;;;39.44;7.79
49529;BME280;35423;37.320;-121.762;2023-04-26T01:46:11;99626.66;;;39.06;7.78
49529;BME280;35423;37.320;-121.762;2023-04-26T01:48:43;99632.00;;;39.44;7.74
49529;BME280;35423;37.320;-121.762;2023-04-26T01:51:11;99633.92;;;39.08;7.40
49529;BME280;35423;37.320;-121.762;2023-04-26T01:53:37;99634.74;;;38.95;6.99
49529;BME280;35423;37.320;-121.762;2023-04-26T01:56:03;99634.50;;;38.48;6.77
49529;BME280;35423;37.320;-121.762;2023-04-26T01:58:29;99633.91;;;38.83;6.82
49529;BME280;35423;37.320;-121.762;2023-04-26T02:01:04;99633.54;;;38.72;6.94
49529;BME280;35423;37.320;-121.762;2023-04-26T02:03:45;99640.97;;;38.78;7.00
49529;BME280;35423;37.320;-121.762;2023-04-26T02:06:16;99642.34;;;38.33;7.12
49529;BME280;35423;37.320;-121.762;2023-04-26T02:08:42;99643.18;;;38.37;7.13
49529;BME280;35423;37.320;-121.762;2023-04-26T02:11:09;99646.98;;;38.02;7.20
49529;BME280;35423;37.320;-121.762;2023-04-26T02:13:39;99650.97;;;38.33;7.19
49529;BME280;35423;37.320;-121.762;2023-04-26T02:16:14;99648.24;;;37.79;7.20
49529;BME280;35423;37.320;-121.762;2023-04-26T02:18:40;99651.08;;;37.35;6.98
49529;BME280;35423;37.320;-121.762;2023-04-26T02:21:09;99651.74;;;37.63;6.90
49529;BME280;35423;37.320;-121.762;2023-04-26T02:23:35;99654.76;;;37.45;6.87
49529;BME280;35423;37.320;-121.762;2023-04-26T02:26:00;99657.34;;;37.26;6.97
49529;BME280;35423;37.320;-121.762;2023-04-26T02:28:35;99658.09;;;37.06;7.00
49529;BME280;35423;37.320;-121.762;2023-04-26T02:31:04;99660.88;;;36.87;7.01
49529;BME280;35423;37.320;-121.762;2023-04-26T02:33:30;99662.21;;;36.70;7.05
49529;BME280;35423;37.320;-121.762;2023-04-26T02:35:57;99663.25;;;36.51;7.01
49529;BME280;35423;37.320;-121.762;2023-04-26T02:38:23;99663.47;;;36.30;7.01
49529;BME280;35423;37.320;-121.762;2023-04-26T02:40:49;99666.46;;;36.08;7.10
49529;BME280;35423;37.320;-121.762;2023-04-26T02:43:15;99673.30;;;36.12;7.12
49529;BME280;35423;37.320;-121.762;2023-04-26T02:45:43;99675.66;;;35.92;7.20
49529;BME280;35423;37.320;-121.762;2023-04-26T02:48:10;99677.83;;;35.76;7.33
49529;BME280;35423;37.320;-121.762;2023-04-26T02:50:36;99679.20;;;35.86;7.44
49529;BME280;35423;37.320;-121.762;2023-04-26T02:53:02;99681.91;;;35.48;7.54
49529;BME280;35423;37.320;-121.762;2023-04-26T02:55:28;99685.94;;;35.33;7.80
49529;BME280;35423;37.320;-121.762;2023-04-26T02:58:06;99687.84;;;35.18;7.98
49529;BME280;35423;37.320;-121.762;2023-04-26T03:00:25;99688.19;;;35.01;8.10
49529;BME280;35423;37.320;-121.762;2023-04-26T03:02:55;99687.89;;;35.07;8.21
49529;BME280;35423;37.320;-121.762;2023-04-26T03:05:22;99691.20;;;35.09;8.31
49529;BME280;35423;37.320;-121.762;2023-04-26T03:07:51;99692.28;;;34.65;8.39
49529;BME280;35423;37.320;-121.762;2023-04-26T03:10:22;99692.33;;;34.95;8.53
49529;BME280;35423;37.320;-121.762;2023-04-26T03:12:59;99694.95;;;34.78;8.58
49529;BME280;35423;37.320;-121.762;2023-04-26T03:15:23;99696.42;;;34.61;8.64
49529;BME280;35423;37.320;-121.762;2023-04-26T03:17:51;99699.17;;;34.75;8.68
49529;BME280;35423;37.320;-121.762;2023-04-26T03:20:17;99703.25;;;34.32;8.80
49529;BME280;35423;37.320;-121.762;2023-04-26T03:22:50;99704.24;;;34.13;8.91
49529;BME280;35423;37.320;-121.762;2023-04-26T03:25:20;99709.22;;;33.96;8.95
49529;BME280;35423;37.320;-121.762;2023-04-26T03:27:56;99709.99;;;34.11;9.07
49529;BME280;35423;37.320;-121.762;2023-04-26T03:30:26;99714.02;;;33.73;9.18
49529;BME280;35423;37.320;-121.762;2023-04-26T03:32:53;99716.93;;;33.86;9.25
49529;BME280;35423;37.320;-121.762;2023-04-26T03:35:17;99716.45;;;33.99;9.20
49529;BME280;35423;37.320;-121.762;2023-04-26T03:37:45;99718.34;;;33.42;9.32
49529;BME280;35423;37.320;-121.762;2023-04-26T03:40:12;99719.31;;;33.21;9.37
49529;BME280;35423;37.320;-121.762;2023-04-26T03:42:52;99722.59;;;33.53;9.50
49529;BME280;35423;37.320;-121.762;2023-04-26T03:45:19;99723.99;;;33.39;9.59
49529;BME280;35423;37.320;-121.762;2023-04-26T03:47:45;99731.33;;;32.98;9.73
49529;BME280;35423;37.320;-121.762;2023-04-26T03:50:12;99735.92;;;33.09;9.82
49529;BME280;35423;37.320;-121.762;2023-04-26T03:52:38;99738.94;;;32.99;9.82
49529;BME280;35423;37.320;-121.762;2023-04-26T03:55:05;99741.96;;;32.83;9.98
49529;BME280;35423;37.320;-121.762;2023-04-26T03:57:30;99749.84;;;32.32;10.39
49529;BME280;35423;37.320;-121.762;2023-04-26T03:59:58;99753.54;;;32.36;10.63
49529;BME280;35423;37.320;-121.762;2023-04-26T04:02:26;99756.41;;;32.18;10.81
49529;BME280;35423;37.320;-121.762;2023-04-26T04:04:52;99760.02;;;32.22;10.86
49529;BME280;35423;37.320;-121.762;2023-04-26T04:07:24;99763.80;;;31.86;10.96
49529;BME280;35423;37.320;-121.762;2023-04-26T04:09:49;99768.45;;;31.74;11.01
49529;BME280;35423;37.320;-121.762;2023-04-26T04:12:17;99771.07;;;31.89;11.05
49529;BME280;35423;37.320;-121.762;2023-04-26T04:14:43;99774.25;;;31.73;11.17
49529;BME280;35423;37.320;-121.762;2023-04-26T04:17:10;99782.37;;;31.85;11.32
49529;BME280;35423;37.320;-121.762;2023-04-26T04:19:39;99786.73;;;31.70;11.44
49529;BME280;35423;37.320;-121.762;2023-04-26T04:22:04;99793.19;;;31.39;11.65
49529;BME280;35423;37.320;-121.762;2023-04-26T04:24:31;99796.38;;;31.44;11.76
49529;BME280;35423;37.320;-121.762;2023-04-26T04:27:00;99799.64;;;31.13;11.95
49529;BME280;35423;37.320;-121.762;2023-04-26T04:29:26;99803.42;;;31.11;12.10
49529;BME280;35423;37.320;-121.762;2023-04-26T04:31:54;99808.12;;;30.96;12.36
49529;BME280;35423;37.320;-121.762;2023-04-26T04:34:22;99813.83;;;30.81;12.55
49529;BME280;35423;37.320;-121.762;2023-04-26T04:36:52;99814.40;;;30.91;12.87
49529;BME280;35423;37.320;-121.762;2023-04-26T04:39:19;99815.03;;;30.80;13.04
49529;BME280;35423;37.320;-121.762;2023-04-26T04:41:43;99813.53;;;30.71;13.21
49529;BME280;35423;37.320;-121.762;2023-04-26T04:44:10;99811.03;;;30.62;13.33
49529;BME280;35423;37.320;-121.762;2023-04-26T04:46:36;99810.87;;;30.74;13.49
49529;BME280;35423;37.320;-121.762;2023-04-26T04:49:04;99814.72;;;30.62;13.52
49529;BME280;35423;37.320;-121.762;2023-04-26T04:51:34;99819.13;;;30.48;13.65
49529;BME280;35423;37.320;-121.762;2023-04-26T04:54:09;99821.58;;;30.28;13.88
49529;BME280;35423;37.320;-121.762;2023-04-26T04:56:32;99824.12;;;30.08;14.04
49529;BME280;35423;37.320;-121.762;2023-04-26T04:58:58;99823.90;;;30.19;14.10
49529;BME280;35423;37.320;-121.762;2023-04-26T05:01:26;99827.06;;;29.85;14.20
49529;BME280;35423;37.320;-121.762;2023-04-26T05:03:51;99827.70;;;30.03;14.27
49529;BME280;35423;37.320;-121.762;2023-04-26T05:06:16;99829.26;;;29.71;14.33
49529;BME280;35423;37.320;-121.762;2023-04-26T05:08:41;99833.70;;;29.84;14.43
49529;BME280;35423;37.320;-121.762;2023-04-26T05:11:12;99834.51;;;29.74;14.48
49529;BME280;35423;37.320;-121.762;2023-04-26T05:13:47;99838.25;;;29.83;14.50
49529;BME280;35423;37.320;-121.762;2023-04-26T05:16:14;99837.05;;;29.69;14.55
49529;BME280;35423;37.320;-121.762;2023-04-26T05:18:42;99839.43;;;29.60;14.60
49529;BME280;35423;37.320;-121.762;2023-04-26T05:21:10;99841.40;;;29.49;14.71
49529;BME280;35423;37.320;-121.762;2023-04-26T05:23:34;99841.02;;;29.36;14.85
49529;BME280;35423;37.320;-121.762;2023-04-26T05:26:02;99841.63;;;29.23;14.98
49529;BME280;35423;37.320;-121.762;2023-04-26T05:28:27;99843.39;;;28.95;15.03
49529;BME280;35423;37.320;-121.762;2023-04-26T05:31:02;99845.64;;;29.31;15.11
49529;BME280;35423;37.320;-121.762;2023-04-26T05:33:31;99846.75;;;28.90;15.19
49529;BME280;35423;37.320;-121.762;2023-04-26T05:35:56;99846.21;;;28.78;15.25
49529;BME280;35423;37.320;-121.762;2023-04-26T05:38:22;99845.89;;;29.16;15.33
49529;BME280;35423;37.320;-121.762;2023-04-26T05:40:50;99849.99;;;29.06;15.43
49529;BME280;35423;37.320;-121.762;2023-04-26T05:43:24;99849.34;;;28.95;15.56
49529;BME280;35423;37.320;-121.762;2023-04-26T05:45:53;99848.33;;;28.62;15.66
49529;BME280;35423;37.320;-121.762;2023-04-26T05:48:20;99849.34;;;28.54;15.77
49529;BME280;35423;37.320;-121.762;2023-04-26T05:50:47;99848.47;;;28.40;15.83
49529;BME280;35423;37.320;-121.762;2023-04-26T05:53:19;99845.69;;;28.29;16.01
49529;BME280;35423;37.320;-121.762;2023-04-26T05:55:45;99842.94;;;28.43;16.02
49529;BME280;35423;37.320;-121.762;2023-04-26T05:58:11;99838.79;;;28.10;16.10
49529;BME280;35423;37.320;-121.762;2023-04-26T06:00:37;99839.47;;;28.23;16.13
49529;BME280;35423;37.320;-121.762;2023-04-26T06:03:08;99839.52;;;28.10;16.20
49529;BME280;35423;37.320;-121.762;2023-04-26T06:05:36;99841.89;;;27.97;16.23
49529;BME280;35423;37.320;-121.762;2023-04-26T06:08:01;99842.16;;;27.60;16.33
49529;BME280;35423;37.320;-121.762;2023-04-26T06:10:28;99845.62;;;27.71;16.43
49529;BME280;35423;37.320;-121.762;2023-04-26T06:12:57;99847.10;;;28.09;16.44
49529;BME280;35423;37.320;-121.762;2023-04-26T06:15:28;99849.42;;;27.73;16.52
49529;BME280;35423;37.320;-121.762;2023-04-26T06:18:05;99851.42;;;27.85;16.63
49529;BME280;35423;37.320;-121.762;2023-04-26T06:20:35;99852.90;;;27.70;16.75
49529;BME280;35423;37.320;-121.762;2023-04-26T06:23:05;99850.03;;;27.55;16.81
49529;BME280;35423;37.320;-121.762;2023-04-26T06:25:38;99853.28;;;26.97;16.86
49529;BME280;35423;37.320;-121.762;2023-04-26T06:28:04;99854.23;;;27.36;16.98
49529;BME280;35423;37.320;-121.762;2023-04-26T06:30:30;99856.19;;;27.01;17.05
49529;BME280;35423;37.320;-121.762;2023-04-26T06:33:02;99856.32;;;27.14;17.14
49529;BME280;35423;37.320;-121.762;2023-04-26T06:35:24;99851.25;;;27.03;17.20
49529;BME280;35423;37.320;-121.762;2023-04-26T06:37:50;99851.90;;;26.95;17.19
49529;BME280;35423;37.320;-121.762;2023-04-26T06:40:18;99849.85;;;26.81;17.27
49529;BME280;35423;37.320;-121.762;2023-04-26T06:42:47;99848.05;;;26.73;17.31
49529;BME280;35423;37.320;-121.762;2023-04-26T06:45:12;99844.94;;;26.64;17.38
49529;BME280;35423;37.320;-121.762;2023-04-26T06:47:41;99843.62;;;26.74;17.53
49529;BME280;35423;37.320;-121.762;2023-04-26T06:50:07;99839.45;;;26.58;17.61
49529;BME280;35423;37.320;-121.762;2023-04-26T06:52:33;99838.48;;;26.26;17.62
49529;BME280;35423;37.320;-121.762;2023-04-26T06:55:01;99838.86;;;26.38;17.68
49529;BME280;35423;37.320;-121.762;2023-04-26T06:57:29;99842.37;;;26.30;17.72
49529;BME280;35423;37.320;-121.762;2023-04-26T06:59:55;99841.32;;;26.45;17.84
49529;BME280;35423;37.320;-121.762;2023-04-26T07:02:20;99840.63;;;26.11;17.94
49529;BME280;35423;37.320;-121.762;2023-04-26T07:04:48;99838.72;;;26.29;18.01
49529;BME280;35423;37.320;-121.762;2023-04-26T07:07:20;99840.80;;;26.14;18.10
49529;BME280;35423;37.320;-121.762;2023-04-26T07:09:52;99841.23;;;26.00;18.16
49529;BME280;35423;37.320;-121.762;2023-04-26T07:12:16;99838.80;;;25.93;18.23
49529;BME280;35423;37.320;-121.762;2023-04-26T07:14:43;99837.09;;;25.51;18.33
49529;BME280;35423;37.320;-121.762;2023-04-26T07:17:08;99837.12;;;25.45;18.32
49529;BME280;35423;37.320;-121.762;2023-04-26T07:19:34;99833.51;;;25.63;18.33
49529;BME280;35423;37.320;-121.762;2023-04-26T07:22:02;99835.45;;;25.55;18.36
49529;BME280;35423;37.320;-121.762;2023-04-26T07:24:50;99834.52;;;25.72;18.35
49529;BME280;35423;37.320;-121.762;2023-04-26T07:27:18;99835.95;;;25.49;18.28
49529;BME280;35423;37.320;-121.762;2023-04-26T07:29:53;99835.38;;;25.61;18.30
49529;BME280;35423;37.320;-121.762;2023-04-26T07:32:17;99836.69;;;25.51;18.42
49529;BME280;35423;37.320;-121.762;2023-04-26T07:34:42;99832.60;;;25.19;18.47
49529;BME280;35423;37.320;-121.762;2023-04-26T07:37:12;99830.82;;;25.34;18.48
49529;BME280;35423;37.320;-121.762;2023-04-26T07:39:37;99827.05;;;25.46;18.57
49529;BME280;35423;37.320;-121.762;2023-04-26T07:42:06;99827.55;;;25.35;18.64
49529;BME280;35423;37.320;-121.762;2023-04-26T07:44:32;99829.67;;;25.30;18.65
49529;BME280;35423;37.320;-121.762;2023-04-26T07:46:58;99834.20;;;25.20;18.61
49529;BME280;35423;37.320;-121.762;2023-04-26T07:49:25;99834.19;;;25.09;18.63
49529;BME280;35423;37.320;-121.762;2023-04-26T07:51:54;99837.24;;;24.98;18.69
49529;BME280;35423;37.320;-121.762;2023-04-26T07:54:20;99838.20;;;24.68;18.74
49529;BME280;35423;37.320;-121.762;2023-04-26T07:56:45;99835.63;;;24.83;18.75
49529;BME280;35423;37.320;-121.762;2023-04-26T07:59:12;99833.97;;;24.55;18.74
49529;BME280;35423;37.320;-121.762;2023-04-26T08:01:39;99833.81;;;25.00;18.75
49529;BME280;35423;37.320;-121.762;2023-04-26T08:04:08;99832.37;;;24.68;18.85
49529;BME280;35423;37.320;-121.762;2023-04-26T08:06:41;99831.68;;;24.62;18.97
49529;BME280;35423;37.320;-121.762;2023-04-26T08:09:06;99832.90;;;24.57;19.04
49529;BME280;35423;37.320;-121.762;2023-04-26T08:11:32;99830.77;;;24.48;19.08
49529;BME280;35423;37.320;-121.762;2023-04-26T08:13:58;99834.33;;;24.65;19.08
49529;BME280;35423;37.320;-121.762;2023-04-26T08:16:34;99836.17;;;24.59;19.05
49529;BME280;35423;37.320;-121.762;2023-04-26T08:19:01;99836.86;;;24.27;19.11
49529;BME280;35423;37.320;-121.762;2023-04-26T08:21:29;99839.55;;;24.43;19.28
49529;BME280;35423;37.320;-121.762;2023-04-26T08:23:57;99835.57;;;24.35;19.22
49529;BME280;35423;37.320;-121.762;2023-04-26T08:26:29;99834.75;;;24.50;19.18
49529;BME280;35423;37.320;-121.762;2023-04-26T08:28:55;99835.74;;;24.18;19.28
49529;BME280;35423;37.320;-121.762;2023-04-26T08:31:23;99836.96;;;24.10;19.43
49529;BME280;35423;37.320;-121.762;2023-04-26T08:33:48;99836.90;;;24.05;19.51
49529;BME280;35423;37.320;-121.762;2023-04-26T08:36:14;99840.26;;;24.22;19.56
49529;BME280;35423;37.320;-121.762;2023-04-26T08:38:40;99841.63;;;23.94;19.70
49529;BME280;35423;37.320;-121.762;2023-04-26T08:41:06;99842.17;;;23.91;19.86
49529;BME280;35423;37.320;-121.762;2023-04-26T08:43:39;99844.28;;;24.10;19.98
49529;BME280;35423;37.320;-121.762;2023-04-26T08:46:18;99841.09;;;24.06;20.05
49529;BME280;35423;37.320;-121.762;2023-04-26T08:48:48;99841.57;;;24.02;20.01
49529;BME280;35423;37.320;-121.762;2023-04-26T08:51:12;99840.24;;;23.90;20.10
49529;BME280;35423;37.320;-121.762;2023-04-26T08:53:38;99836.27;;;23.81;20.14
49529;BME280;35423;37.320;-121.762;2023-04-26T08:56:11;99836.62;;;23.49;20.15
49529;BME280;35423;37.320;-121.762;2023-04-26T08:58:28;99832.69;;;23.60;20.20
49529;BME280;35423;37.320;-121.762;2023-04-26T09:01:01;99832.13;;;23.54;20.24
49529;BME280;35423;37.320;-121.762;2023-04-26T09:03:28;99832.72;;;23.47;20.28
49529;BME280;35423;37.320;-121.762;2023-04-26T09:05:55;99832.25;;;23.43;20.36
49529;BME280;35423;37.320;-121.762;2023-04-26T09:08:22;99833.81;;;23.67;20.40
49529;BME280;35423;37.320;-121.762;2023-04-26T09:10:49;99832.61;;;23.40;20.37
49529;BME280;35423;37.320;-121.762;2023-04-26T09:13:18;99830.48;;;23.62;20.33
49529;BME280;35423;37.320;-121.762;2023-04-26T09:15:48;99828.11;;;23.27;20.27
49529;BME280;35423;37.320;-121.762;2023-04-26T09:18:18;99820.59;;;23.19;20.37
49529;BME280;35423;37.320;-121.762;2023-04-26T09:20:39;99816.70;;;23.12;20.19
49529;BME280;35423;37.320;-121.762;2023-04-26T09:23:07;99813.32;;;23.03;20.15
49529;BME280;35423;37.320;-121.762;2023-04-26T09:25:36;99811.97;;;23.40;20.19
49529;BME280;35423;37.320;-121.762;2023-04-26T09:30:35;99818.51;;;23.09;20.25
49529;BME280;35423;37.320;-121.762;2023-04-26T09:32:56;99815.92;;;23.03;20.27
49529;BME280;35423;37.320;-121.762;2023-04-26T09:35:26;99813.37;;;23.13;20.39
49529;BME280;35423;37.320;-121.762;2023-04-26T09:37:55;99809.65;;;23.10;20.41
49529;BME280;35423;37.320;-121.762;2023-04-26T09:40:19;99809.50;;;22.80;20.46
49529;BME280;35423;37.320;-121.762;2023-04-26T09:45:15;99806.30;;;22.88;20.54
49529;BME280;35423;37.320;-121.762;2023-04-26T09:47:44;99802.82;;;22.85;20.57
49529;BME280;35423;37.320;-121.762;2023-04-26T09:50:12;99801.26;;;22.79;20.62
49529;BME280;35423;37.320;-121.762;2023-04-26T09:52:44;99798.56;;;22.53;20.62
49529;BME280;35423;37.320;-121.762;2023-04-26T09:55:09;99800.97;;;22.52;20.60
49529;BME280;35423;37.320;-121.762;2023-04-26T09:57:43;99800.81;;;22.72;20.60
49529;BME280;35423;37.320;-121.762;2023-04-26T10:00:15;99801.43;;;22.62;20.71
49529;BME280;35423;37.320;-121.762;2023-04-26T10:02:39;99798.69;;;22.57;20.63
49529;BME280;35423;37.320;-121.762;2023-04-26T10:05:07;99798.52;;;22.47;20.69
49529;BME280;35423;37.320;-121.762;2023-04-26T10:07:34;99800.29;;;22.41;20.71
49529;BME280;35423;37.320;-121.762;2023-04-26T10:10:02;99803.89;;;22.35;20.77
49529;BME280;35423;37.320;-121.762;2023-04-26T10:12:28;99806.48;;;22.26;20.87
49529;BME280;35423;37.320;-121.762;2023-04-26T10:14:54;99810.75;;;22.16;20.95
49529;BME280;35423;37.320;-121.762;2023-04-26T10:17:20;99813.69;;;22.19;20.94
49529;BME280;35423;37.320;-121.762;2023-04-26T10:19:50;99819.03;;;22.32;21.07
49529;BME280;35423;37.320;-121.762;2023-04-26T10:22:18;99822.67;;;22.26;21.22
49529;BME280;35423;37.320;-121.762;2023-04-26T10:24:45;99823.56;;;21.98;21.19
49529;BME280;35423;37.320;-121.762;2023-04-26T10:27:12;99826.20;;;22.14;21.37
49529;BME280;35423;37.320;-121.762;2023-04-26T10:32:08;99824.58;;;21.81;21.72
49529;BME280;35423;37.320;-121.762;2023-04-26T10:34:36;99824.35;;;22.00;21.95
49529;BME280;35423;37.320;-121.762;2023-04-26T10:37:06;99822.61;;;21.98;22.17
49529;BME280;35423;37.320;-121.762;2023-04-26T10:39:37;99822.08;;;21.92;22.38
49529;BME280;35423;37.320;-121.762;2023-04-26T10:44:38;99820.12;;;21.90;22.63
49529;BME280;35423;37.320;-121.762;2023-04-26T10:46:57;99824.57;;;21.67;22.86
49529;BME280;35423;37.320;-121.762;2023-04-26T10:49:22;99822.45;;;21.89;23.06
49529;BME280;35423;37.320;-121.762;2023-04-26T10:54:24;99819.46;;;21.55;23.41
49529;BME280;35423;37.320;-121.762;2023-04-26T10:56:51;99821.85;;;21.42;23.56
49529;BME280;35423;37.320;-121.762;2023-04-26T10:59:20;99822.11;;;20.88;23.68
49529;BME280;35423;37.320;-121.762;2023-04-26T11:02:00;99823.58;;;21.24;23.84
49529;BME280;35423;37.320;-121.762;2023-04-26T11:04:17;99823.15;;;21.04;23.86
49529;BME280;35423;37.320;-121.762;2023-04-26T11:06:46;99825.82;;;21.16;23.98
49529;BME280;35423;37.320;-121.762;2023-04-26T11:14:03;99828.81;;;20.87;24.39
49529;BME280;35423;37.320;-121.762;2023-04-26T11:16:36;99832.21;;;21.09;24.43
49529;BME280;35423;37.320;-121.762;2023-04-26T11:19:01;99834.00;;;20.79;24.48
49529;BME280;35423;37.320;-121.762;2023-04-26T11:21:36;99837.18;;;21.01;24.56
49529;BME280;35423;37.320;-121.762;2023-04-26T11:24:03;99837.98;;;20.67;24.59
49529;BME280;35423;37.320;-121.762;2023-04-26T11:26:32;99844.70;;;20.63;24.57
49529;BME280;35423;37.320;-121.762;2023-04-26T11:28:56;99846.89;;;20.58;24.65
49529;BME280;35423;37.320;-121.762;2023-04-26T11:31:22;99844.29;;;20.47;24.77
49529;BME280;35423;37.320;-121.762;2023-04-26T11:33:50;99840.01;;;20.85;24.80
49529;BME280;35423;37.320;-121.762;2023-04-26T11:36:18;99836.64;;;20.57;24.81
49529;BME280;35423;37.320;-121.762;2023-04-26T11:38:44;99833.05;;;20.50;24.93
49529;BME280;35423;37.320;-121.762;2023-04-26T11:41:11;99831.75;;;20.14;25.08
49529;BME280;35423;37.320;-121.762;2023-04-26T11:43:39;99830.42;;;20.61;25.18
49529;BME280;35423;37.320;-121.762;2023-04-26T11:46:06;99830.97;;;20.30;25.32
49529;BME280;35423;37.320;-121.762;2023-04-26T11:48:31;99829.66;;;19.97;25.38
49529;BME280;35423;37.320;-121.762;2023-04-26T11:51:01;99827.56;;;20.44;25.42
49529;BME280;35423;37.320;-121.762;2023-04-26T11:53:35;99824.27;;;20.42;25.45
49529;BME280;35423;37.320;-121.762;2023-04-26T11:55:52;99821.56;;;20.39;25.41
49529;BME280;35423;37.320;-121.762;2023-04-26T11:58:17;99816.61;;;20.34;25.46
49529;BME280;35423;37.320;-121.762;2023-04-26T12:03:15;99814.82;;;20.19;25.63
49529;BME280;35423;37.320;-121.762;2023-04-26T12:05:41;99809.20;;;19.92;25.66
49529;BME280;35423;37.320;-121.762;2023-04-26T12:08:10;99807.17;;;20.12;25.70
49529;BME280;35423;37.320;-121.762;2023-04-26T12:10:42;99805.87;;;19.88;25.69
49529;BME280;35423;37.320;-121.762;2023-04-26T12:13:13;99806.53;;;20.03;25.79
49529;BME280;35423;37.320;-121.762;2023-04-26T12:15:34;99809.23;;;20.00;25.86
49529;BME280;35423;37.320;-121.762;2023-04-26T12:18:06;99811.91;;;19.95;25.90
49529;BME280;35423;37.320;-121.762;2023-04-26T12:20:42;99816.50;;;19.91;25.92
49529;BME280;35423;37.320;-121.762;2023-04-26T12:23:09;99817.93;;;19.89;25.91
49529;BME280;35423;37.320;-121.762;2023-04-26T12:25:50;99820.86;;;19.87;25.98
49529;BME280;35423;37.320;-121.762;2023-04-26T12:28:10;99817.45;;;19.84;26.05
49529;BME280;35423;37.320;-121.762;2023-04-26T12:30:39;99816.36;;;19.78;25.96
49529;BME280;35423;37.320;-121.762;2023-04-26T12:33:08;99816.03;;;19.73;25.99
49529;BME280;35423;37.320;-121.762;2023-04-26T12:35:34;99818.07;;;19.70;25.98
49529;BME280;35423;37.320;-121.762;2023-04-26T12:38:01;99816.96;;;19.66;26.01
49529;BME280;35423;37.320;-121.762;2023-04-26T12:40:34;99820.09;;;20.12;26.06
49529;BME280;35423;37.320;-121.762;2023-04-26T12:43:00;99822.81;;;19.56;26.20
49529;BME280;35423;37.320;-121.762;2023-04-26T12:45:27;99822.32;;;19.79;26.28
49529;BME280;35423;37.320;-121.762;2023-04-26T12:47:54;99821.22;;;19.97;26.41
49529;BME280;35423;37.320;-121.762;2023-04-26T12:50:19;99819.54;;;19.70;26.54
49529;BME280;35423;37.320;-121.762;2023-04-26T12:52:52;99820.95;;;19.88;26.63
49529;BME280;35423;37.320;-121.762;2023-04-26T12:55:17;99825.92;;;19.33;26.72
49529;BME280;35423;37.320;-121.762;2023-04-26T12:57:44;99825.60;;;19.29;26.77